Terminal Aerodrome Forecast
Issued by NWS Tuscon, AZ

Home | Current Version | Previous Version | Text Only | Print | Product List | Glossary On
Versions: 1 2 3 4 5 6 7 8 9 10 11 12 13
000
FTUS45 KTWC 020200 AAA
TAFDUG
TAF AMD
KDUG 020213Z 0202/0224 17009KT P6SM SCT060 BKN200
     FM021500 15012KT P6SM SCT040 BKN080
     FM021900 18025G35KT P6SM VCSH BKN040=

USA.gov is the U.S. government's official web portal to all federal, state and local government web resources and services.